Time;durP1;ratioP1;P1;durP2;ratioP2;P2;SDS_P1;SDS_P2;PMS_P1;PMS_P2;Temp;Humidity;BMP_temperature;BMP_pressure;BME280_temperature;BME280_humidity;BME280_pressure;Samples;Min_cycle;Max_cycle;Signal;HPM_P1;HPM_P2
2020/12/02 00:01:17;;;;;;;19.08;7.80;;;6.00;95.80;;;;;;5096949;28;20443;-90
2020/12/02 00:04:10;;;;;;;17.83;7.97;;;6.00;95.90;;;;;;5079749;28;20435;-90
2020/12/02 00:06:37;;;;;;;18.05;7.00;;;6.00;95.90;;;;;;5080871;28;20389;-90
2020/12/02 00:09:29;;;;;;;12.07;6.70;;;6.10;95.90;;;;;;5079648;28;20390;-91
2020/12/02 00:11:54;;;;;;;11.23;5.57;;;6.10;95.70;;;;;;5092229;28;20379;-90
2020/12/02 00:14:25;;;;;;;11.37;6.57;;;6.10;95.80;;;;;;5080089;28;20393;-89
2020/12/02 00:16:51;;;;;;;11.97;6.30;;;6.00;95.80;;;;;;5079824;28;21083;-90
2020/12/02 00:19:17;;;;;;;10.35;5.50;;;6.00;95.70;;;;;;5080407;28;20419;-90
2020/12/02 00:21:58;;;;;;;13.40;6.50;;;6.00;95.90;;;;;;5081439;27;20517;-90
2020/12/02 00:24:23;;;;;;;13.77;6.50;;;6.10;95.70;;;;;;5083968;27;20926;-90
2020/12/02 00:26:49;;;;;;;13.23;7.03;;;6.00;96.00;;;;;;5083120;27;20383;-89
2020/12/02 00:29:14;;;;;;;11.53;7.07;;;6.10;95.90;;;;;;5083801;27;20394;-89
2020/12/02 00:31:40;;;;;;;12.77;7.57;;;6.10;95.80;;;;;;5083454;27;20382;-90
2020/12/02 00:34:06;;;;;;;18.90;9.00;;;6.00;95.80;;;;;;5083405;27;20866;-90
2020/12/02 00:36:31;;;;;;;17.17;8.20;;;6.00;95.90;;;;;;5083175;27;20386;-89
2020/12/02 00:38:57;;;;;;;18.93;8.37;;;6.00;96.00;;;;;;5083341;27;20851;-90
2020/12/02 00:41:22;;;;;;;16.37;8.70;;;6.00;95.80;;;;;;5083563;27;20386;-89
2020/12/02 00:43:48;;;;;;;16.90;8.70;;;6.00;95.90;;;;;;5100238;27;21009;-90
2020/12/02 00:46:13;;;;;;;25.13;9.90;;;6.10;95.80;;;;;;5083625;27;20382;-90
2020/12/02 00:48:39;;;;;;;18.90;9.53;;;6.20;95.70;;;;;;5082781;27;20398;-90
2020/12/02 00:51:05;;;;;;;18.50;9.00;;;6.10;95.50;;;;;;5083230;27;20394;-90
2020/12/02 00:53:32;;;;;;;31.33;12.33;;;6.00;95.80;;;;;;5083017;27;20477;-90
2020/12/02 00:55:58;;;;;;;36.40;13.90;;;6.00;95.70;;;;;;5083371;27;20389;-90
2020/12/02 00:58:53;;;;;;;48.60;14.90;;;6.00;96.00;;;;;;5082232;27;20473;-90
2020/12/02 01:01:47;;;;;;;39.78;14.70;;;5.90;96.10;;;;;;5117151;27;20419;-90
2020/12/02 01:04:18;;;;;;;64.80;17.05;;;5.90;96.10;;;;;;5094503;27;20398;-90
2020/12/02 01:06:44;;;;;;;111.53;19.13;;;6.00;96.10;;;;;;5082384;27;20395;-89
2020/12/02 01:09:10;;;;;;;171.27;25.45;;;6.00;96.00;;;;;;5082871;27;20383;-90
2020/12/02 01:11:35;;;;;;;199.57;32.17;;;5.90;96.40;;;;;;5082669;27;20735;-90
2020/12/02 01:14:02;;;;;;;298.50;35.60;;;5.90;96.30;;;;;;5082862;27;20743;-90
2020/12/02 01:16:39;;;;;;;311.50;37.83;;;5.80;96.50;;;;;;5082700;27;20379;-90
2020/12/02 01:19:07;;;;;;;319.02;36.35;;;5.80;96.60;;;;;;5082845;27;20379;-89
2020/12/02 01:21:45;;;;;;;451.85;43.03;;;5.90;96.50;;;;;;5099359;27;20383;-89
2020/12/02 01:24:13;;;;;;;336.95;39.63;;;5.70;96.80;;;;;;5099656;27;20406;-89
2020/12/02 01:26:43;;;;;;;318.80;39.83;;;5.70;96.90;;;;;;5082420;27;20390;-89
2020/12/02 01:29:19;;;;;;;201.30;35.30;;;5.80;97.00;;;;;;5082490;27;20436;-90
2020/12/02 01:31:50;;;;;;;161.32;34.10;;;5.90;96.70;;;;;;5082633;27;20405;-90
2020/12/02 01:34:16;;;;;;;125.20;30.80;;;5.90;96.50;;;;;;5099228;27;20390;-90
2020/12/02 01:36:58;;;;;;;119.27;29.70;;;5.80;96.50;;;;;;5081797;27;20382;-90
2020/12/02 01:39:25;;;;;;;96.22;28.38;;;5.80;96.50;;;;;;5100096;27;20471;-90
2020/12/02 01:41:51;;;;;;;104.43;28.50;;;5.90;96.20;;;;;;5082596;27;20395;-90
2020/12/02 01:44:17;;;;;;;100.43;29.13;;;5.90;96.00;;;;;;5081939;27;20404;-90
2020/12/02 01:47:26;;;;;;;105.37;27.43;;;5.90;95.90;;;;;;5081725;27;20390;-90
2020/12/02 01:50:13;;;;;;;88.72;28.30;;;5.80;96.00;;;;;;5104614;27;20413;-90
2020/12/02 01:52:45;;;;;;;76.30;25.30;;;5.80;95.90;;;;;;5098769;27;20375;-90
2020/12/02 01:55:13;;;;;;;87.30;25.08;;;5.80;96.20;;;;;;5098576;27;20390;-90
2020/12/02 01:57:39;;;;;;;64.00;24.07;;;5.70;96.30;;;;;;5081724;27;20382;-90
2020/12/02 02:00:15;;;;;;;62.33;22.70;;;5.70;96.40;;;;;;5082149;27;20383;-90
2020/12/02 02:03:02;;;;;;;61.78;21.52;;;5.80;96.30;;;;;;5099624;27;20374;-90
2020/12/02 02:05:32;;;;;;;59.55;21.25;;;5.90;96.20;;;;;;5082965;27;20411;-90
2020/12/02 02:07:57;;;;;;;52.08;20.70;;;5.70;96.30;;;;;;5082331;27;20492;-90
2020/12/02 02:10:23;;;;;;;60.45;20.42;;;5.80;96.40;;;;;;5081774;27;20486;-90
2020/12/02 02:12:58;;;;;;;68.70;21.13;;;5.90;96.00;;;;;;5115597;27;20472;-91
2020/12/02 02:15:42;;;;;;;57.67;21.17;;;6.00;95.70;;;;;;5098365;27;20460;-90
2020/12/02 02:18:27;;;;;;;60.20;19.83;;;5.90;95.90;;;;;;5114864;27;20416;-90
2020/12/02 02:20:56;;;;;;;53.28;20.17;;;5.90;95.70;;;;;;5098631;27;20772;-90
2020/12/02 02:23:22;;;;;;;58.90;20.70;;;5.80;95.80;;;;;;5098209;27;20857;-90
2020/12/02 02:26:03;;;;;;;53.90;20.38;;;5.90;95.90;;;;;;5081605;27;20410;-91
2020/12/02 02:28:29;;;;;;;66.00;21.52;;;5.90;95.60;;;;;;5097955;27;20398;-90
2020/12/02 02:30:55;;;;;;;64.00;21.07;;;5.90;95.40;;;;;;5081509;27;20393;-90
2020/12/02 02:33:20;;;;;;;61.40;21.25;;;5.80;95.80;;;;;;5081178;27;20886;-90
2020/12/02 02:35:46;;;;;;;66.55;22.30;;;5.90;95.90;;;;;;5081329;27;20378;-90
2020/12/02 02:38:24;;;;;;;65.85;21.20;;;5.90;95.50;;;;;;5080740;27;20393;-90
2020/12/02 02:40:49;;;;;;;66.30;21.77;;;5.80;95.70;;;;;;5079815;27;20858;-90
2020/12/02 02:43:15;;;;;;;64.50;22.40;;;5.80;95.70;;;;;;5098108;27;20498;-90
2020/12/02 02:45:41;;;;;;;68.43;23.37;;;5.80;95.60;;;;;;5079693;27;20440;-90
2020/12/02 02:48:06;;;;;;;73.78;22.98;;;5.90;95.60;;;;;;5080685;27;20627;-90
2020/12/02 02:50:33;;;;;;;71.47;23.02;;;5.80;95.60;;;;;;5080859;27;20859;-90
2020/12/02 02:52:59;;;;;;;59.90;21.42;;;5.80;95.60;;;;;;5081088;27;20764;-90
2020/12/02 02:55:25;;;;;;;62.40;22.53;;;5.80;95.50;;;;;;5080741;27;20712;-90
2020/12/02 02:57:50;;;;;;;66.17;22.50;;;5.90;95.60;;;;;;5080802;27;20886;-90
2020/12/02 03:00:28;;;;;;;67.78;23.38;;;5.90;95.20;;;;;;5080725;27;20378;-91
2020/12/02 03:02:54;;;;;;;71.35;24.05;;;5.90;95.20;;;;;;5081648;27;20470;-90
2020/12/02 03:05:19;;;;;;;82.53;24.23;;;5.90;95.20;;;;;;5080340;27;20482;-89
2020/12/02 03:07:51;;;;;;;115.57;25.92;;;5.90;95.10;;;;;;5080134;27;20386;-90
2020/12/02 03:10:17;;;;;;;119.03;24.73;;;5.70;95.60;;;;;;5098285;27;20696;-90
2020/12/02 03:12:43;;;;;;;115.97;26.00;;;5.70;95.70;;;;;;5080235;27;20460;-90
2020/12/02 03:15:09;;;;;;;92.95;23.90;;;5.70;95.70;;;;;;5080496;27;20851;-90
2020/12/02 03:17:35;;;;;;;73.13;21.55;;;5.70;95.80;;;;;;5080208;27;20390;-90
2020/12/02 03:20:12;;;;;;;68.10;22.07;;;5.50;96.00;;;;;;5080754;27;20386;-90
2020/12/02 03:22:38;;;;;;;75.50;21.80;;;5.70;95.90;;;;;;5082048;27;20402;-90
2020/12/02 03:25:04;;;;;;;65.03;21.20;;;5.50;96.10;;;;;;5080562;27;20402;-90
2020/12/02 03:27:29;;;;;;;61.25;21.10;;;5.40;96.40;;;;;;5080066;27;20390;-90
2020/12/02 03:29:55;;;;;;;66.70;20.13;;;5.60;96.00;;;;;;5080690;27;20375;-90
2020/12/02 03:32:21;;;;;;;68.70;20.70;;;5.60;95.90;;;;;;5080281;27;20387;-90
2020/12/02 03:35:14;;;;;;;89.03;22.50;;;5.60;95.90;;;;;;5081054;28;20386;-90
2020/12/02 03:37:40;;;;;;;67.28;20.13;;;5.60;95.80;;;;;;5095413;28;20418;-90
2020/12/02 03:40:06;;;;;;;62.88;20.08;;;5.60;95.70;;;;;;5080365;28;20422;-90
2020/12/02 03:42:32;;;;;;;62.10;20.13;;;5.60;95.60;;;;;;5079970;28;20375;-89
2020/12/02 03:44:57;;;;;;;58.63;19.57;;;5.70;95.40;;;;;;5080377;28;20409;-90
2020/12/02 03:47:23;;;;;;;66.57;20.30;;;5.60;95.30;;;;;;5079293;28;20859;-90
2020/12/02 03:49:49;;;;;;;85.23;21.77;;;5.60;95.40;;;;;;5080220;28;20478;-90
2020/12/02 03:52:14;;;;;;;76.70;20.73;;;5.50;95.50;;;;;;5080557;28;20383;-90
2020/12/02 03:54:40;;;;;;;64.07;20.33;;;5.50;95.50;;;;;;5080535;28;20383;-90
2020/12/02 03:57:05;;;;;;;63.97;21.43;;;5.50;95.40;;;;;;5098904;27;20383;-90
2020/12/02 03:59:31;;;;;;;63.22;19.60;;;5.50;95.40;;;;;;5084312;27;20834;-90
2020/12/02 04:01:57;;;;;;;58.95;17.83;;;5.50;95.30;;;;;;5101457;27;20840;-90
2020/12/02 04:04:22;;;;;;;56.90;19.00;;;5.50;95.20;;;;;;5084307;27;20409;-89
2020/12/02 04:06:48;;;;;;;61.13;18.88;;;5.40;95.30;;;;;;5083934;27;20424;-90
2020/12/02 04:09:14;;;;;;;68.07;19.08;;;5.40;95.40;;;;;;5084003;27;20389;-89
2020/12/02 04:11:40;;;;;;;59.40;19.67;;;5.40;95.40;;;;;;5084094;27;20383;-90
2020/12/02 04:14:05;;;;;;;56.13;18.13;;;5.40;95.50;;;;;;5084150;27;20416;-90
2020/12/02 04:16:31;;;;;;;59.43;18.70;;;5.40;95.80;;;;;;5083846;27;20383;-89
2020/12/02 04:18:58;;;;;;;67.37;18.40;;;5.30;95.50;;;;;;5100634;27;20378;-89
2020/12/02 04:21:24;;;;;;;72.43;18.25;;;5.30;95.60;;;;;;5083370;27;20415;-90
2020/12/02 04:23:53;;;;;;;68.68;19.02;;;5.30;95.60;;;;;;5082742;27;20406;-90
2020/12/02 04:26:19;;;;;;;73.68;19.45;;;5.20;95.50;;;;;;5083820;27;20382;-90
2020/12/02 04:28:44;;;;;;;68.90;19.85;;;5.20;95.60;;;;;;5083359;27;20792;-90
2020/12/02 04:31:10;;;;;;;106.57;22.60;;;5.20;95.70;;;;;;5083306;27;20403;-89
2020/12/02 04:33:36;;;;;;;82.85;20.75;;;5.10;95.80;;;;;;5083672;27;20386;-89
2020/12/02 04:36:04;;;;;;;82.68;20.45;;;5.20;95.60;;;;;;5083277;27;21001;-90
2020/12/02 04:38:30;;;;;;;72.25;19.90;;;5.10;95.50;;;;;;5082981;27;20383;-89
2020/12/02 04:40:55;;;;;;;76.05;21.00;;;5.20;95.50;;;;;;5082969;27;20465;-90
2020/12/02 04:43:29;;;;;;;72.63;20.70;;;5.20;95.30;;;;;;5083393;27;20422;-90
2020/12/02 04:45:55;;;;;;;66.53;21.10;;;5.30;95.30;;;;;;5084039;27;20426;-90
2020/12/02 04:48:22;;;;;;;85.38;21.67;;;5.20;95.10;;;;;;5081827;27;20405;-89
2020/12/02 04:50:48;;;;;;;87.78;21.75;;;5.10;95.40;;;;;;5083934;27;20386;-89
2020/12/02 04:53:21;;;;;;;84.47;21.58;;;5.20;95.40;;;;;;5082961;27;20394;-89
2020/12/02 04:55:54;;;;;;;89.05;22.45;;;5.10;95.50;;;;;;5083271;27;20383;-89
2020/12/02 04:58:32;;;;;;;90.75;24.70;;;5.00;95.50;;;;;;5100789;27;20431;-89
2020/12/02 05:01:24;;;;;;;86.00;24.58;;;5.00;95.40;;;;;;5084245;27;20383;-89
2020/12/02 05:03:57;;;;;;;80.32;24.00;;;5.20;95.30;;;;;;5099806;27;20405;-89
2020/12/02 05:06:40;;;;;;;84.00;25.70;;;5.20;95.10;;;;;;5083285;27;20394;-89
2020/12/02 05:09:18;;;;;;;90.47;25.80;;;5.20;95.00;;;;;;5098460;27;20391;-90
2020/12/02 05:12:12;;;;;;;84.90;25.47;;;5.10;95.00;;;;;;5083024;27;20379;-89
2020/12/02 05:14:42;;;;;;;81.05;25.45;;;5.10;95.20;;;;;;5099696;27;20387;-89
2020/12/02 05:17:21;;;;;;;70.67;24.93;;;5.10;95.40;;;;;;5082987;27;20382;-89
2020/12/02 05:20:08;;;;;;;80.03;25.17;;;5.10;95.30;;;;;;5099987;27;20390;-90
2020/12/02 05:22:38;;;;;;;79.63;25.48;;;5.20;95.00;;;;;;5101646;27;20402;-89
2020/12/02 05:25:05;;;;;;;83.20;25.45;;;5.10;95.00;;;;;;5099667;27;20402;-89
2020/12/02 05:27:34;;;;;;;76.88;25.45;;;5.20;95.20;;;;;;5082329;27;20751;-89
2020/12/02 05:30:22;;;;;;;81.33;24.63;;;5.30;94.70;;;;;;5082619;27;20441;-90
2020/12/02 05:33:21;;;;;;;86.20;23.45;;;5.20;95.10;;;;;;5100396;27;20381;-89
2020/12/02 05:35:51;;;;;;;77.47;22.38;;;5.10;95.30;;;;;;5044596;27;20446;-90
2020/12/02 05:38:41;;;;;;;63.45;21.77;;;5.20;95.20;;;;;;5098705;27;20383;-89
2020/12/02 05:41:11;;;;;;;69.63;21.27;;;5.10;95.30;;;;;;5101584;27;20529;-89
2020/12/02 05:43:47;;;;;;;79.13;21.48;;;5.10;95.20;;;;;;5081915;27;20383;-89
2020/12/02 05:46:39;;;;;;;62.25;21.77;;;5.10;95.10;;;;;;5082609;27;20385;-89
2020/12/02 05:49:07;;;;;;;86.25;22.80;;;5.10;95.30;;;;;;5088051;27;20672;-89
2020/12/02 05:51:32;;;;;;;82.85;22.27;;;5.10;95.30;;;;;;5082088;27;20388;-89
2020/12/02 05:54:06;;;;;;;83.75;22.90;;;5.20;95.00;;;;;;5081884;27;20386;-89
2020/12/02 05:56:32;;;;;;;72.88;22.55;;;5.10;95.30;;;;;;5082063;27;20421;-89
2020/12/02 05:58:58;;;;;;;76.88;23.63;;;5.00;95.60;;;;;;5081854;27;20397;-89
2020/12/02 06:01:23;;;;;;;71.07;22.63;;;5.10;95.70;;;;;;5081948;27;20386;-89
2020/12/02 06:03:55;;;;;;;76.57;23.92;;;5.10;95.40;;;;;;5081466;27;20798;-89
2020/12/02 06:06:21;;;;;;;88.82;25.25;;;5.10;95.50;;;;;;5081871;27;20386;-90
2020/12/02 06:08:50;;;;;;;138.82;29.85;;;5.00;95.40;;;;;;5081217;27;20435;-89
2020/12/02 06:11:16;;;;;;;73.90;23.92;;;5.00;95.30;;;;;;5082048;27;20378;-89
2020/12/02 06:13:43;;;;;;;90.10;25.27;;;5.00;95.40;;;;;;5115266;27;20446;-90
2020/12/02 06:16:16;;;;;;;79.60;24.73;;;5.00;95.30;;;;;;5081879;27;20424;-89
2020/12/02 06:18:42;;;;;;;72.80;21.40;;;4.90;95.40;;;;;;5080850;27;20379;-90
2020/12/02 06:21:19;;;;;;;59.33;21.17;;;5.00;95.40;;;;;;5081486;27;20475;-90
2020/12/02 06:23:49;;;;;;;50.55;17.98;;;5.00;95.30;;;;;;5082479;27;20391;-89
2020/12/02 06:26:15;;;;;;;46.13;17.30;;;4.90;95.40;;;;;;5082139;27;20777;-89
2020/12/02 06:28:41;;;;;;;50.28;18.35;;;4.90;95.20;;;;;;5097578;27;20386;-89
2020/12/02 06:31:18;;;;;;;48.47;17.13;;;4.90;95.30;;;;;;5115065;27;20394;-87
2020/12/02 06:33:45;;;;;;;46.47;18.30;;;5.00;95.10;;;;;;5114562;27;20386;-86
2020/12/02 06:36:28;;;;;;;44.60;17.08;;;5.00;95.20;;;;;;5080644;27;20439;-86
2020/12/02 06:39:09;;;;;;;40.00;15.43;;;4.90;95.20;;;;;;5080469;27;20442;-86
2020/12/02 06:41:47;;;;;;;42.40;15.63;;;4.90;95.10;;;;;;5113783;27;20383;-86
2020/12/02 06:44:12;;;;;;;42.05;15.95;;;4.70;95.70;;;;;;5081611;27;20417;-86
2020/12/02 06:46:53;;;;;;;44.00;16.00;;;4.80;95.50;;;;;;5113697;27;20387;-88
2020/12/02 06:49:19;;;;;;;44.03;17.58;;;4.80;95.30;;;;;;5114048;27;20383;-87
2020/12/02 06:52:05;;;;;;;49.00;18.10;;;4.80;95.30;;;;;;5070118;27;20407;-87
2020/12/02 06:54:32;;;;;;;57.03;19.95;;;4.70;95.60;;;;;;5076994;28;20391;-86
2020/12/02 06:57:02;;;;;;;57.85;19.92;;;4.70;95.70;;;;;;5060256;28;20392;-87
2020/12/02 06:59:27;;;;;;;63.28;21.42;;;4.80;95.50;;;;;;5060604;28;20376;-87
2020/12/02 07:01:54;;;;;;;64.25;21.02;;;4.70;95.80;;;;;;5060277;28;20390;-86
2020/12/02 07:04:22;;;;;;;67.75;23.17;;;4.70;95.80;;;;;;5060276;28;20780;-87
2020/12/02 07:06:57;;;;;;;70.32;24.05;;;4.70;95.90;;;;;;5059938;28;20383;-87
2020/12/02 07:09:22;;;;;;;67.83;23.57;;;4.70;96.00;;;;;;5058296;28;20373;-88
2020/12/02 07:12:00;;;;;;;75.93;24.50;;;4.80;95.90;;;;;;5060379;28;20387;-88
2020/12/02 07:14:34;;;;;;;92.18;25.80;;;4.90;95.90;;;;;;5060836;28;20396;-88
2020/12/02 07:17:03;;;;;;;128.87;29.73;;;4.80;95.80;;;;;;5059914;28;20944;-88
2020/12/02 07:19:34;;;;;;;125.72;29.30;;;4.70;95.70;;;;;;5060557;28;20388;-88
2020/12/02 07:22:03;;;;;;;127.53;29.38;;;4.50;95.90;;;;;;5060013;28;20405;-89
2020/12/02 07:24:39;;;;;;;140.90;30.95;;;4.40;96.10;;;;;;5077621;28;20404;-89
2020/12/02 07:27:05;;;;;;;113.38;29.98;;;4.60;95.90;;;;;;5060444;28;20429;-88
2020/12/02 07:29:31;;;;;;;104.53;29.13;;;4.70;95.90;;;;;;5060311;28;20388;-89
2020/12/02 07:32:01;;;;;;;107.57;29.87;;;4.40;95.90;;;;;;5059303;28;20391;-89
2020/12/02 07:34:27;;;;;;;98.55;29.25;;;4.50;95.90;;;;;;5076917;28;20444;-89
2020/12/02 07:37:04;;;;;;;97.97;29.90;;;4.60;96.00;;;;;;5076302;28;20416;-89
2020/12/02 07:39:29;;;;;;;108.57;28.83;;;4.70;95.80;;;;;;5060480;28;20392;-89
2020/12/02 07:42:03;;;;;;;118.85;30.55;;;4.60;95.50;;;;;;5060361;28;20436;-89
2020/12/02 07:44:30;;;;;;;115.57;31.85;;;4.60;95.60;;;;;;5076202;28;20503;-89
2020/12/02 07:46:57;;;;;;;104.57;32.00;;;4.60;95.70;;;;;;5059573;28;20378;-89
2020/12/02 07:49:23;;;;;;;117.22;31.20;;;4.60;95.70;;;;;;5060401;28;20388;-89
2020/12/02 07:51:51;;;;;;;105.78;33.40;;;4.70;95.50;;;;;;5060276;28;20845;-89
2020/12/02 07:54:17;;;;;;;97.68;33.08;;;4.70;95.30;;;;;;5065553;28;20423;-90
2020/12/02 07:56:44;;;;;;;122.70;32.95;;;4.70;95.60;;;;;;5076476;28;20384;-89
2020/12/02 07:59:18;;;;;;;121.97;32.63;;;4.70;95.10;;;;;;5060097;28;20392;-90
2020/12/02 08:01:59;;;;;;;92.75;32.13;;;4.60;95.30;;;;;;5077356;28;20477;-89
2020/12/02 08:04:34;;;;;;;101.18;31.40;;;4.60;95.30;;;;;;5077839;28;20746;-89
2020/12/02 08:07:12;;;;;;;89.15;30.02;;;4.60;95.30;;;;;;5092973;28;20396;-90
2020/12/02 08:09:45;;;;;;;86.32;29.25;;;4.50;95.50;;;;;;5059981;28;20387;-89
2020/12/02 08:12:24;;;;;;;92.88;28.42;;;4.50;95.40;;;;;;5076459;28;20391;-90
2020/12/02 08:14:58;;;;;;;91.18;27.35;;;4.50;95.50;;;;;;5077658;28;20392;-89
2020/12/02 08:17:25;;;;;;;110.75;27.85;;;4.50;95.50;;;;;;5076285;28;20381;-90
2020/12/02 08:19:58;;;;;;;105.50;28.90;;;4.50;95.50;;;;;;5059694;28;20400;-90
2020/12/02 08:22:26;;;;;;;108.75;26.95;;;4.70;95.60;;;;;;5060790;28;25094;-90
2020/12/02 08:25:00;;;;;;;102.38;25.42;;;4.50;95.80;;;;;;5076111;28;20401;-90
2020/12/02 08:27:27;;;;;;;104.65;25.77;;;4.60;95.70;;;;;;5060792;28;20767;-90
2020/12/02 08:29:54;;;;;;;131.52;28.00;;;4.60;95.70;;;;;;5059621;28;20467;-90
2020/12/02 08:32:32;;;;;;;84.65;25.77;;;4.70;95.30;;;;;;5060278;28;20385;-90
2020/12/02 08:34:57;;;;;;;83.10;25.73;;;4.60;95.40;;;;;;5060333;28;20393;-90
2020/12/02 08:37:34;;;;;;;108.88;28.30;;;4.60;95.50;;;;;;5059340;28;20376;-90
2020/12/02 08:40:19;;;;;;;87.20;27.83;;;4.60;95.50;;;;;;5058482;28;20744;-89
2020/12/02 08:42:45;;;;;;;91.13;26.53;;;4.50;95.60;;;;;;5061093;28;20841;-89
2020/12/02 08:45:21;;;;;;;90.83;26.70;;;4.60;95.60;;;;;;5080174;28;20409;-89
2020/12/02 08:47:55;;;;;;;88.97;26.33;;;4.70;95.30;;;;;;5079118;28;20475;-90
2020/12/02 08:50:26;;;;;;;80.55;26.35;;;4.60;95.00;;;;;;5063271;28;20423;-90
2020/12/02 08:52:52;;;;;;;74.03;25.63;;;4.60;95.30;;;;;;5063091;28;20445;-90
2020/12/02 08:55:18;;;;;;;70.05;26.50;;;4.70;95.10;;;;;;5063310;28;20453;-90
2020/12/02 08:57:44;;;;;;;58.63;24.33;;;4.70;95.10;;;;;;5062766;28;20384;-90
2020/12/02 09:00:12;;;;;;;58.60;24.40;;;4.70;95.30;;;;;;5062967;28;20444;-90
2020/12/02 09:02:38;;;;;;;53.72;22.15;;;4.80;95.50;;;;;;5063360;28;20912;-90
2020/12/02 09:05:03;;;;;;;59.75;22.80;;;4.80;94.70;;;;;;5062847;28;20407;-90
2020/12/02 09:07:29;;;;;;;56.65;23.63;;;4.70;94.60;;;;;;5062643;28;20394;-90
2020/12/02 09:09:55;;;;;;;64.82;24.42;;;4.70;94.80;;;;;;5063054;28;20767;-89
2020/12/02 09:12:20;;;;;;;54.83;22.80;;;4.80;94.80;;;;;;5079684;28;20376;-90
2020/12/02 09:14:46;;;;;;;66.22;25.15;;;4.90;94.60;;;;;;5062669;28;20535;-90
2020/12/02 09:17:11;;;;;;;67.45;24.67;;;4.60;95.00;;;;;;5062432;28;20396;-90
2020/12/02 09:19:37;;;;;;;53.63;22.85;;;4.70;95.10;;;;;;5062540;28;20387;-89
2020/12/02 09:22:02;;;;;;;61.15;22.25;;;4.80;94.90;;;;;;5062565;28;20888;-90
2020/12/02 09:24:29;;;;;;;55.05;22.92;;;4.80;94.90;;;;;;5062375;28;20404;-90
2020/12/02 09:26:54;;;;;;;50.95;22.08;;;4.80;94.90;;;;;;5062363;28;20880;-90
2020/12/02 09:29:20;;;;;;;52.27;21.80;;;4.80;94.90;;;;;;5062274;28;20395;-89
2020/12/02 09:31:45;;;;;;;47.80;22.47;;;4.90;95.00;;;;;;5062435;28;20485;-90
2020/12/02 09:34:11;;;;;;;63.17;23.13;;;4.90;94.40;;;;;;5079459;28;20390;-89
2020/12/02 09:36:37;;;;;;;52.50;22.40;;;5.00;94.70;;;;;;5078807;28;20369;-89
2020/12/02 09:39:03;;;;;;;59.20;23.10;;;4.90;94.70;;;;;;5062188;28;20443;-89
2020/12/02 09:41:40;;;;;;;49.83;22.52;;;4.90;94.80;;;;;;5062229;28;20565;-89
2020/12/02 09:44:17;;;;;;;59.00;22.42;;;4.90;94.40;;;;;;5079156;28;20408;-89
2020/12/02 09:46:44;;;;;;;62.45;24.85;;;4.70;95.00;;;;;;5095039;28;20411;-89
2020/12/02 09:49:10;;;;;;;53.70;22.92;;;4.80;95.30;;;;;;5062304;28;20383;-89
2020/12/02 09:51:36;;;;;;;63.30;24.40;;;4.80;95.00;;;;;;5061852;28;20787;-89
2020/12/02 09:54:02;;;;;;;59.97;23.03;;;4.90;94.80;;;;;;5061290;28;20388;-88
2020/12/02 09:56:28;;;;;;;58.40;22.63;;;4.90;94.70;;;;;;5061681;28;20390;-89
2020/12/02 09:58:57;;;;;;;50.97;22.20;;;4.90;94.90;;;;;;5078094;28;20849;-89
2020/12/02 10:01:53;;;;;;;50.45;22.00;;;5.00;95.00;;;;;;5078306;28;20775;-89
2020/12/02 10:04:29;;;;;;;51.13;21.77;;;5.10;94.70;;;;;;5066566;28;20434;-88
2020/12/02 10:07:04;;;;;;;60.45;23.75;;;5.00;94.50;;;;;;5078783;28;20400;-89
2020/12/02 10:09:39;;;;;;;51.40;22.10;;;5.10;95.10;;;;;;5094628;28;20380;-88
2020/12/02 10:12:33;;;;;;;48.50;21.75;;;5.10;94.70;;;;;;5077794;28;20444;-89
2020/12/02 10:15:10;;;;;;;50.70;21.90;;;5.10;94.90;;;;;;5097229;28;20416;-88
2020/12/02 10:18:12;;;;;;;55.33;22.85;;;5.00;94.90;;;;;;5078363;28;20388;-88
2020/12/02 10:20:48;;;;;;;53.83;22.38;;;5.10;94.70;;;;;;5077955;28;20959;-87
2020/12/02 10:23:16;;;;;;;50.60;21.70;;;5.10;94.80;;;;;;5077558;28;20400;-89
2020/12/02 10:26:02;;;;;;;63.70;23.00;;;5.20;94.50;;;;;;5094274;28;20405;-88
2020/12/02 10:28:31;;;;;;;41.90;19.13;;;5.10;95.10;;;;;;5093656;28;20769;-88
2020/12/02 10:31:06;;;;;;;38.97;18.27;;;5.20;95.20;;;;;;5077491;28;20864;-88
2020/12/02 10:33:38;;;;;;;36.95;16.75;;;5.20;95.40;;;;;;5094620;28;20380;-88
2020/12/02 10:36:04;;;;;;;31.63;15.77;;;5.30;94.90;;;;;;5077135;28;20450;-88
2020/12/02 10:38:35;;;;;;;32.97;15.75;;;5.30;94.90;;;;;;5060669;28;20392;-88
2020/12/02 10:41:28;;;;;;;36.72;16.67;;;5.20;94.90;;;;;;5061154;28;20786;-88
2020/12/02 10:44:03;;;;;;;35.15;17.50;;;5.30;95.00;;;;;;5094208;28;20403;-89
2020/12/02 10:46:50;;;;;;;33.72;17.20;;;5.40;95.00;;;;;;5094030;28;20778;-88
2020/12/02 10:49:29;;;;;;;35.97;17.43;;;5.30;94.70;;;;;;5077022;28;20393;-88
2020/12/02 10:51:57;;;;;;;35.80;17.23;;;5.40;94.40;;;;;;5078523;28;20907;-88
2020/12/02 10:54:28;;;;;;;33.97;17.10;;;5.50;93.80;;;;;;5077389;28;20808;-90
2020/12/02 10:56:57;;;;;;;40.00;18.63;;;5.50;93.50;;;;;;5061136;28;21001;-88
2020/12/02 10:59:23;;;;;;;38.35;18.23;;;5.40;93.70;;;;;;5060097;28;20391;-88
2020/12/02 11:01:49;;;;;;;49.22;19.73;;;5.30;94.40;;;;;;5077131;28;20379;-88
2020/12/02 11:04:15;;;;;;;37.50;17.95;;;5.50;94.60;;;;;;5060487;28;20404;-88
2020/12/02 11:07:08;;;;;;;35.83;17.08;;;5.50;94.00;;;;;;5075816;28;20381;-88
2020/12/02 11:09:51;;;;;;;36.05;17.20;;;5.50;93.80;;;;;;5077558;28;20485;-88
2020/12/02 11:12:20;;;;;;;35.08;17.90;;;5.60;93.80;;;;;;5093383;28;20515;-89
2020/12/02 11:15:12;;;;;;;43.25;18.92;;;5.50;93.30;;;;;;5093603;28;20449;-88
2020/12/02 11:17:54;;;;;;;37.03;17.55;;;5.40;95.20;;;;;;5078045;28;20391;-89
2020/12/02 11:20:32;;;;;;;28.73;15.48;;;5.40;95.40;;;;;;5078391;28;20736;-88
2020/12/02 11:23:07;;;;;;;29.98;15.07;;;5.40;93.90;;;;;;5085558;27;20711;-88
2020/12/02 11:25:48;;;;;;;35.73;16.23;;;5.30;94.10;;;;;;5113947;27;20425;-88
2020/12/02 11:28:15;;;;;;;29.73;14.60;;;5.40;95.00;;;;;;5113045;27;21459;-88
2020/12/02 11:30:41;;;;;;;28.70;14.70;;;5.50;94.20;;;;;;5080127;27;20443;-88
2020/12/02 11:33:33;;;;;;;28.08;14.35;;;5.40;94.30;;;;;;5080026;27;20863;-88
2020/12/02 11:36:38;;;;;;;27.60;14.80;;;5.40;94.40;;;;;;5081485;28;20926;-88
2020/12/02 11:39:12;;;;;;;27.20;13.55;;;5.30;94.80;;;;;;5084061;28;20391;-86
2020/12/02 11:41:56;;;;;;;32.37;15.33;;;5.30;94.20;;;;;;5096793;28;20407;-86
2020/12/02 11:44:34;;;;;;;35.58;15.77;;;5.30;95.00;;;;;;5113439;28;20466;-89
2020/12/02 11:47:09;;;;;;;29.15;14.20;;;5.30;94.90;;;;;;5080620;28;20379;-88
2020/12/02 11:49:36;;;;;;;24.92;13.35;;;5.30;94.40;;;;;;5081047;28;20672;-88
2020/12/02 11:52:06;;;;;;;36.88;16.17;;;5.40;93.00;;;;;;5079734;28;20370;-88
2020/12/02 11:54:31;;;;;;;26.77;14.40;;;5.40;95.10;;;;;;5096850;28;20382;-88
2020/12/02 11:56:57;;;;;;;28.00;14.55;;;5.50;94.50;;;;;;5079524;28;20391;-88
2020/12/02 11:59:25;;;;;;;30.63;14.60;;;5.60;93.90;;;;;;5096988;28;20374;-88
2020/12/02 12:01:54;;;;;;;28.95;14.50;;;5.50;94.00;;;;;;5096553;28;20379;-87
2020/12/02 12:04:48;;;;;;;30.58;14.52;;;5.40;94.20;;;;;;5113946;28;20430;-88
2020/12/02 12:07:35;;;;;;;28.53;14.13;;;5.50;94.40;;;;;;5096265;28;20823;-88
2020/12/02 12:10:06;;;;;;;26.88;14.00;;;5.50;93.90;;;;;;5131644;28;20378;-88
2020/12/02 12:12:40;;;;;;;24.43;13.53;;;5.50;93.60;;;;;;5096531;28;20898;-88
2020/12/02 12:15:12;;;;;;;27.00;14.23;;;5.50;93.20;;;;;;5096412;28;20451;-87
2020/12/02 12:17:38;;;;;;;27.67;14.40;;;5.40;94.10;;;;;;5114425;27;20386;-88
2020/12/02 12:20:20;;;;;;;26.83;14.15;;;5.50;93.50;;;;;;5083519;27;20378;-88
2020/12/02 12:22:46;;;;;;;32.13;14.37;;;5.50;93.60;;;;;;5083366;27;20394;-88
2020/12/02 12:25:19;;;;;;;30.42;14.75;;;5.50;94.20;;;;;;5117018;27;20499;-88
2020/12/02 12:27:45;;;;;;;22.77;12.45;;;5.50;94.40;;;;;;5083487;27;20391;-88
2020/12/02 12:30:11;;;;;;;23.85;13.20;;;5.40;93.70;;;;;;5083690;27;20863;-87
2020/12/02 12:32:55;;;;;;;24.75;13.23;;;5.50;93.20;;;;;;5083631;27;20410;-88
2020/12/02 12:35:25;;;;;;;29.70;15.07;;;5.40;94.10;;;;;;5085023;27;20406;-87
2020/12/02 12:38:07;;;;;;;31.02;16.20;;;5.50;94.20;;;;;;5082568;27;20393;-88
2020/12/02 12:40:35;;;;;;;23.40;12.18;;;5.30;95.20;;;;;;5116673;27;20875;-86
2020/12/02 12:43:02;;;;;;;20.77;11.80;;;5.20;95.00;;;;;;5083229;27;20800;-88
2020/12/02 12:45:47;;;;;;;23.80;11.43;;;5.20;95.00;;;;;;5099872;27;20402;-87
2020/12/02 12:48:17;;;;;;;17.50;10.82;;;5.20;94.00;;;;;;5099697;27;20383;-88
2020/12/02 12:50:44;;;;;;;18.52;10.80;;;5.00;95.10;;;;;;5083083;27;20470;-87
2020/12/02 12:53:10;;;;;;;19.27;10.40;;;4.90;95.30;;;;;;5082724;27;20379;-88
2020/12/02 12:55:36;;;;;;;14.13;9.18;;;4.90;95.30;;;;;;5082749;27;20378;-87
2020/12/02 12:58:13;;;;;;;14.23;9.53;;;4.90;95.40;;;;;;5082697;27;20386;-87